createdAt,value
2022-09-15T00:02:15.885Z,18.51
2022-09-15T00:05:39.723Z,17.94
2022-09-15T00:09:03.865Z,18.44
2022-09-15T00:12:27.750Z,19.47
2022-09-15T00:15:51.759Z,20.36
2022-09-15T00:19:15.740Z,19.25
2022-09-15T00:22:39.752Z,19.86
2022-09-15T00:26:05.723Z,19.35
2022-09-15T00:29:29.763Z,17.99
2022-09-15T00:32:54.757Z,18.57
2022-09-15T00:36:20.762Z,19.48
2022-09-15T00:39:44.799Z,20.51
2022-09-15T00:43:08.774Z,20.32
2022-09-15T00:46:35.761Z,19.92
2022-09-15T00:50:01.802Z,20.76
2022-09-15T00:53:26.755Z,20.62
2022-09-15T00:56:51.767Z,20.14
2022-09-15T01:00:15.756Z,20.40
2022-09-15T01:03:40.771Z,21.19
2022-09-15T01:07:10.769Z,20.28
2022-09-15T01:10:50.782Z,20.35
2022-09-15T01:14:14.738Z,21.78
2022-09-15T01:18:02.810Z,22.03
2022-09-15T01:21:32.775Z,22.00
2022-09-15T01:25:21.796Z,22.57
2022-09-15T01:28:56.801Z,22.02
2022-09-15T01:32:52.447Z,20.81
2022-09-15T01:36:30.794Z,20.82
2022-09-15T01:39:57.811Z,20.66
2022-09-15T01:43:22.787Z,20.69
2022-09-15T01:46:50.766Z,20.76
2022-09-15T01:50:26.807Z,21.33
2022-09-15T01:53:50.861Z,21.35
2022-09-15T01:57:17.810Z,21.54
2022-09-15T02:00:41.804Z,21.48
2022-09-15T02:04:11.835Z,21.55
2022-09-15T02:07:55.824Z,21.34
2022-09-15T02:11:40.806Z,20.20
2022-09-15T02:15:13.803Z,19.39
2022-09-15T02:19:01.775Z,18.75
2022-09-15T02:22:37.848Z,16.79
2022-09-15T02:26:09.780Z,18.19
2022-09-15T02:29:33.832Z,18.89
2022-09-15T02:33:01.835Z,18.59
2022-09-15T02:36:27.785Z,17.82
2022-09-15T02:39:56.845Z,17.18
2022-09-15T02:43:26.812Z,18.04
2022-09-15T02:46:51.829Z,17.81
2022-09-15T02:50:14.835Z,17.79
2022-09-15T02:53:37.820Z,18.42
2022-09-15T02:57:01.805Z,18.96
2022-09-15T03:00:28.819Z,19.07
2022-09-15T03:03:51.853Z,19.21
2022-09-15T03:07:15.798Z,19.54
2022-09-15T03:10:41.846Z,19.10
2022-09-15T03:14:18.786Z,18.45
2022-09-15T03:17:42.833Z,19.00
2022-09-15T03:21:11.848Z,19.42
2022-09-15T03:24:35.847Z,19.05
2022-09-15T03:27:52.408Z,18.97
2022-09-15T03:31:09.874Z,18.63
2022-09-15T03:34:33.824Z,18.75
2022-09-15T03:37:50.830Z,18.61
2022-09-15T03:41:18.846Z,19.10
2022-09-15T03:44:43.862Z,18.17
2022-09-15T03:48:07.825Z,18.84
2022-09-15T03:51:31.878Z,18.19
2022-09-15T03:54:54.854Z,18.51
2022-09-15T03:58:19.862Z,18.12
2022-09-15T04:01:44.858Z,17.98
2022-09-15T04:05:10.853Z,17.31
2022-09-15T04:08:34.843Z,17.21
2022-09-15T04:11:58.842Z,17.46
2022-09-15T04:15:22.816Z,16.68
2022-09-15T04:18:45.872Z,16.74
2022-09-15T04:22:11.523Z,16.69
2022-09-15T04:25:37.837Z,16.73
2022-09-15T04:28:55.436Z,16.38
2022-09-15T04:32:13.868Z,16.52
2022-09-15T04:35:37.834Z,16.36
2022-09-15T04:39:02.875Z,16.22
2022-09-15T04:42:29.852Z,16.12
2022-09-15T04:45:53.908Z,15.99
2022-09-15T04:49:17.846Z,16.02
2022-09-15T04:52:41.899Z,15.69
2022-09-15T04:56:05.872Z,15.58
2022-09-15T04:59:33.883Z,15.43
2022-09-15T05:02:57.862Z,15.18
2022-09-15T05:06:23.909Z,14.92
2022-09-15T05:09:47.866Z,14.68
2022-09-15T05:13:12.897Z,14.80
2022-09-15T05:16:39.886Z,14.44
2022-09-15T05:20:03.910Z,14.27
2022-09-15T05:23:28.877Z,14.18
2022-09-15T05:26:52.889Z,13.91
2022-09-15T05:30:36.006Z,13.85
2022-09-15T05:33:48.942Z,13.76
2022-09-15T05:37:13.020Z,13.58
2022-09-15T05:40:35.894Z,13.54
2022-09-15T05:44:00.879Z,13.30
2022-09-15T05:47:24.903Z,13.25
2022-09-15T05:50:48.918Z,13.12
2022-09-15T05:54:13.904Z,12.98
2022-09-15T05:57:37.901Z,13.00
2022-09-15T06:01:02.888Z,12.85
2022-09-15T06:04:25.918Z,12.76
2022-09-15T06:07:49.935Z,12.70
2022-09-15T06:11:18.876Z,12.63
2022-09-15T06:14:42.889Z,12.49
2022-09-15T06:18:05.887Z,12.44
2022-09-15T06:21:34.891Z,12.41
2022-09-15T06:24:59.871Z,12.21
2022-09-15T06:28:23.943Z,12.24
2022-09-15T06:31:44.009Z,12.12
2022-09-15T06:35:08.917Z,12.05
2022-09-15T06:38:31.919Z,11.96
2022-09-15T06:42:04.854Z,12.04
2022-09-15T06:45:31.955Z,11.88
2022-09-15T06:48:55.879Z,11.90
2022-09-15T06:52:18.914Z,11.64
2022-09-15T06:55:42.866Z,11.56
2022-09-15T06:59:05.917Z,11.65
2022-09-15T07:02:30.056Z,11.44
2022-09-15T07:05:54.965Z,11.27
2022-09-15T07:09:19.906Z,11.16
2022-09-15T07:12:44.926Z,11.15
2022-09-15T07:16:10.974Z,11.11
2022-09-15T07:19:34.960Z,10.97
2022-09-15T07:22:58.950Z,10.98
2022-09-15T07:26:29.959Z,10.88
2022-09-15T07:29:53.929Z,10.89
2022-09-15T07:33:11.599Z,10.61
2022-09-15T07:36:29.937Z,10.47
2022-09-15T07:39:54.972Z,10.57
2022-09-15T07:43:18.971Z,10.54
2022-09-15T07:46:45.937Z,10.54
2022-09-15T07:50:08.938Z,10.51
2022-09-15T07:53:33.902Z,10.65
2022-09-15T07:56:57.984Z,10.59
2022-09-15T08:00:24.032Z,10.52
2022-09-15T08:03:46.908Z,10.56
2022-09-15T08:07:10.924Z,10.60
2022-09-15T08:10:33.996Z,10.57
2022-09-15T08:13:57.891Z,10.13
2022-09-15T08:17:21.984Z,9.92
2022-09-15T08:20:46.000Z,9.85
2022-09-15T08:24:14.925Z,9.76
2022-09-15T08:27:39.003Z,9.70
2022-09-15T08:31:02.968Z,9.59
2022-09-15T08:34:32.977Z,9.43
2022-09-15T08:37:56.957Z,9.37
2022-09-15T08:41:22.961Z,9.18
2022-09-15T08:45:06.957Z,9.04
2022-09-15T08:48:30.949Z,9.00
2022-09-15T08:52:00.958Z,9.01
2022-09-15T08:55:39.005Z,8.94
2022-09-15T08:59:02.912Z,8.91
2022-09-15T09:02:30.102Z,8.75
2022-09-15T09:06:09.994Z,8.81
2022-09-15T09:09:45.970Z,8.80
2022-09-15T09:13:34.669Z,8.72
2022-09-15T09:17:05.971Z,8.72
2022-09-15T09:20:43.023Z,8.82
2022-09-15T09:24:19.004Z,8.56
2022-09-15T09:27:48.010Z,8.63
2022-09-15T09:31:19.965Z,8.64
2022-09-15T09:34:50.015Z,8.66
2022-09-15T09:38:13.931Z,8.43
2022-09-15T09:41:45.011Z,8.47
2022-09-15T09:45:08.968Z,8.61
2022-09-15T09:48:39.020Z,8.46
2022-09-15T09:52:04.954Z,8.18
2022-09-15T09:55:37.967Z,8.31
2022-09-15T09:59:01.961Z,8.28
2022-09-15T10:02:32.967Z,8.40
2022-09-15T10:05:58.962Z,8.65
2022-09-15T10:09:33.153Z,8.86
2022-09-15T10:12:57.996Z,9.14
2022-09-15T10:16:22.062Z,8.86
2022-09-15T10:19:48.994Z,8.48
2022-09-15T10:23:18.929Z,8.31
2022-09-15T10:26:45.986Z,8.18
2022-09-15T10:30:09.974Z,8.17
2022-09-15T10:33:38.988Z,8.25
2022-09-15T10:37:03.009Z,8.20
2022-09-15T10:40:47.960Z,8.11
2022-09-15T10:44:30.997Z,8.24
2022-09-15T10:48:10.948Z,8.24
2022-09-15T10:52:13.001Z,8.22
2022-09-15T10:55:56.996Z,8.65
2022-09-15T10:59:36.003Z,8.98
2022-09-15T11:03:17.008Z,9.06
2022-09-15T11:07:03.990Z,9.15
2022-09-15T11:10:45.014Z,9.23
2022-09-15T11:14:32.009Z,9.12
2022-09-15T11:18:05.050Z,8.93
2022-09-15T11:21:35.970Z,8.76
2022-09-15T11:25:03.004Z,8.74
2022-09-15T11:28:34.971Z,8.91
2022-09-15T11:32:00.150Z,8.65
2022-09-15T11:35:56.027Z,8.53
2022-09-15T11:39:20.052Z,8.86
2022-09-15T11:43:27.977Z,9.10
2022-09-15T11:47:17.047Z,9.03
2022-09-15T11:50:47.983Z,8.72
2022-09-15T11:54:31.998Z,8.43
2022-09-15T11:58:33.020Z,8.44
2022-09-15T12:02:09.046Z,8.19
2022-09-15T12:05:46.060Z,7.99
2022-09-15T12:09:13.999Z,7.97
2022-09-15T12:12:38.007Z,8.02
2022-09-15T12:16:04.122Z,7.84
2022-09-15T12:19:50.067Z,7.79
2022-09-15T12:23:53.110Z,7.86
2022-09-15T12:27:16.982Z,7.57
2022-09-15T12:30:58.086Z,7.45
2022-09-15T12:34:48.053Z,7.41
2022-09-15T12:38:14.072Z,7.35
2022-09-15T12:41:31.947Z,7.25
2022-09-15T12:44:56.013Z,7.21
2022-09-15T12:48:45.603Z,7.16
2022-09-15T12:52:12.984Z,6.96
2022-09-15T12:55:40.035Z,6.98
2022-09-15T12:59:06.527Z,6.97
2022-09-15T13:03:07.035Z,6.95
2022-09-15T13:06:46.062Z,6.73
2022-09-15T13:10:27.008Z,6.90
2022-09-15T13:13:58.048Z,7.00
2022-09-15T13:17:24.073Z,6.99
2022-09-15T13:20:50.053Z,6.85
2022-09-15T13:24:15.077Z,6.99
2022-09-15T13:27:49.060Z,7.14
2022-09-15T13:31:26.045Z,7.32
2022-09-15T13:35:20.890Z,7.15
2022-09-15T13:38:54.030Z,7.28
2022-09-15T13:42:28.886Z,7.43
2022-09-15T13:46:22.227Z,7.55
2022-09-15T13:50:06.172Z,7.79
2022-09-15T13:53:42.118Z,8.15
2022-09-15T13:57:06.096Z,8.14
2022-09-15T14:00:35.054Z,8.29
2022-09-15T14:04:05.056Z,8.21
2022-09-15T14:07:37.056Z,8.42
2022-09-15T14:11:08.053Z,8.50
2022-09-15T14:14:50.068Z,8.64
2022-09-15T14:18:14.091Z,8.80
2022-09-15T14:21:48.073Z,9.10
2022-09-15T14:25:13.108Z,9.15
2022-09-15T14:28:42.025Z,9.36
2022-09-15T14:32:06.143Z,9.14
2022-09-15T14:35:44.024Z,9.14
2022-09-15T14:39:33.058Z,9.20
2022-09-15T14:42:57.079Z,9.28
2022-09-15T14:46:31.116Z,9.09
2022-09-15T14:49:55.016Z,8.74
2022-09-15T14:53:38.120Z,8.51
2022-09-15T14:57:04.071Z,8.36
2022-09-15T15:00:34.174Z,8.20
2022-09-15T15:04:26.121Z,8.17
2022-09-15T15:07:52.038Z,7.98
2022-09-15T15:11:16.142Z,7.87
2022-09-15T15:14:41.044Z,7.75
2022-09-15T15:18:07.126Z,7.48
2022-09-15T15:21:57.035Z,7.59
2022-09-15T15:25:42.120Z,7.89
2022-09-15T15:29:06.043Z,8.08
2022-09-15T15:32:37.072Z,8.09
2022-09-15T15:36:01.114Z,7.70
2022-09-15T15:39:38.095Z,7.49
2022-09-15T15:43:19.106Z,7.42
2022-09-15T15:47:04.126Z,7.57
2022-09-15T15:50:33.064Z,7.69
2022-09-15T15:53:57.121Z,7.49
2022-09-15T15:57:42.100Z,7.48
2022-09-15T16:01:11.164Z,7.34
2022-09-15T16:04:36.107Z,7.14
2022-09-15T16:08:01.113Z,7.07
2022-09-15T16:11:29.102Z,7.00
2022-09-15T16:14:53.128Z,7.05
2022-09-15T16:18:17.085Z,6.74
2022-09-15T16:21:57.077Z,6.91
2022-09-15T16:25:30.067Z,6.99
2022-09-15T16:28:48.131Z,7.27
2022-09-15T16:32:12.067Z,7.42
2022-09-15T16:35:57.108Z,7.48
2022-09-15T16:39:21.073Z,7.57
2022-09-15T16:42:45.103Z,7.65
2022-09-15T16:46:03.195Z,7.82
2022-09-15T16:49:20.148Z,7.86
2022-09-15T16:52:44.066Z,8.05
2022-09-15T16:56:09.115Z,8.17
2022-09-15T16:59:33.060Z,8.12
2022-09-15T17:02:57.095Z,8.26
2022-09-15T17:06:21.117Z,8.39
2022-09-15T17:09:45.155Z,8.76
2022-09-15T17:13:09.107Z,8.61
2022-09-15T17:16:34.110Z,8.45
2022-09-15T17:19:58.073Z,8.30
2022-09-15T17:23:39.156Z,8.44
2022-09-15T17:27:03.067Z,8.41
2022-09-15T17:30:28.105Z,8.37
2022-09-15T17:33:53.146Z,8.30
2022-09-15T17:37:17.144Z,8.08
2022-09-15T17:40:41.165Z,7.94
2022-09-15T17:44:06.074Z,7.82
2022-09-15T17:47:30.134Z,7.81
2022-09-15T17:50:56.127Z,7.52
2022-09-15T17:54:20.178Z,7.39
2022-09-15T17:57:45.128Z,7.34
2022-09-15T18:01:03.134Z,7.20
2022-09-15T18:04:27.086Z,7.16
2022-09-15T18:07:51.136Z,7.20
2022-09-15T18:11:16.143Z,7.36
2022-09-15T18:14:41.169Z,7.24
2022-09-15T18:18:12.076Z,7.39
2022-09-15T18:21:40.167Z,7.51
2022-09-15T18:25:05.132Z,7.46
2022-09-15T18:28:28.179Z,7.66
2022-09-15T18:31:53.081Z,7.78
2022-09-15T18:35:18.642Z,7.89
2022-09-15T18:38:44.137Z,7.91
2022-09-15T18:42:01.175Z,8.06
2022-09-15T18:45:27.102Z,8.17
2022-09-15T18:48:51.135Z,8.58
2022-09-15T18:52:15.113Z,8.48
2022-09-15T18:55:39.128Z,8.54
2022-09-15T18:59:03.171Z,8.60
2022-09-15T19:02:27.311Z,8.73
2022-09-15T19:05:50.166Z,8.77
2022-09-15T19:09:14.177Z,8.89
2022-09-15T19:12:38.129Z,9.05
2022-09-15T19:16:02.203Z,9.02
2022-09-15T19:19:26.162Z,9.35
2022-09-15T19:22:50.178Z,9.44
2022-09-15T19:26:25.155Z,9.58
2022-09-15T19:29:52.186Z,9.70
2022-09-15T19:33:19.123Z,9.74
2022-09-15T19:36:43.141Z,10.03
2022-09-15T19:40:06.217Z,10.23
2022-09-15T19:43:30.111Z,10.37
2022-09-15T19:46:54.190Z,10.52
2022-09-15T19:50:20.157Z,10.56
2022-09-15T19:53:36.214Z,11.77
2022-09-15T19:57:00.155Z,12.69
2022-09-15T20:00:26.197Z,12.10
2022-09-15T20:03:50.144Z,12.17
2022-09-15T20:07:15.216Z,12.15
2022-09-15T20:10:39.189Z,12.19
2022-09-15T20:14:03.152Z,12.24
2022-09-15T20:17:28.201Z,12.38
2022-09-15T20:20:55.207Z,12.58
2022-09-15T20:24:18.216Z,12.60
2022-09-15T20:27:42.147Z,12.65
2022-09-15T20:31:14.208Z,12.69
2022-09-15T20:34:38.178Z,12.59
2022-09-15T20:38:02.181Z,12.69
2022-09-15T20:41:27.188Z,12.90
2022-09-15T20:44:50.171Z,13.13
2022-09-15T20:48:07.776Z,13.46
2022-09-15T20:51:31.216Z,13.72
2022-09-15T20:54:55.211Z,14.23
2022-09-15T20:58:21.155Z,14.22
2022-09-15T21:01:51.380Z,14.52
2022-09-15T21:05:14.149Z,14.26
2022-09-15T21:08:38.182Z,14.27
2022-09-15T21:12:03.192Z,14.26
2022-09-15T21:15:28.176Z,14.24
2022-09-15T21:18:54.223Z,14.27
2022-09-15T21:22:19.238Z,14.50
2022-09-15T21:25:43.229Z,14.62
2022-09-15T21:29:06.213Z,15.14
2022-09-15T21:32:30.183Z,14.81
2022-09-15T21:35:57.179Z,14.72
2022-09-15T21:39:21.232Z,14.49
2022-09-15T21:42:45.210Z,14.61
2022-09-15T21:46:13.226Z,14.74
2022-09-15T21:49:30.761Z,15.22
2022-09-15T21:52:48.194Z,15.87
2022-09-15T21:56:20.225Z,15.77
2022-09-15T21:59:44.238Z,15.70
2022-09-15T22:03:07.176Z,16.03
2022-09-15T22:06:35.243Z,15.76
2022-09-15T22:09:59.224Z,16.23
2022-09-15T22:13:25.202Z,16.44
2022-09-15T22:16:53.293Z,16.49
2022-09-15T22:20:17.204Z,16.08
2022-09-15T22:23:42.226Z,15.94
2022-09-15T22:27:06.268Z,15.55
2022-09-15T22:30:30.232Z,15.70
2022-09-15T22:33:54.238Z,17.76
2022-09-15T22:37:18.207Z,18.73
2022-09-15T22:40:41.252Z,19.09
2022-09-15T22:44:05.201Z,19.22
2022-09-15T22:47:29.232Z,19.68
2022-09-15T22:50:54.212Z,18.69
2022-09-15T22:54:18.211Z,17.89
2022-09-15T22:57:45.270Z,18.23
2022-09-15T23:01:08.271Z,17.74
2022-09-15T23:04:32.244Z,17.36
2022-09-15T23:07:55.241Z,17.35
2022-09-15T23:11:21.267Z,18.12
2022-09-15T23:14:45.233Z,17.65
2022-09-15T23:18:09.268Z,16.86
2022-09-15T23:21:34.283Z,16.71
2022-09-15T23:24:58.194Z,16.59
2022-09-15T23:28:22.278Z,16.59
2022-09-15T23:31:47.253Z,17.01
2022-09-15T23:35:11.288Z,17.91
2022-09-15T23:38:36.233Z,17.79
2022-09-15T23:42:00.286Z,18.16
2022-09-15T23:45:24.424Z,19.21
2022-09-15T23:48:48.257Z,19.69
2022-09-15T23:52:12.303Z,19.79
2022-09-15T23:55:36.246Z,19.20
2022-09-15T23:59:00.300Z,19.57
